Flight Briefing for CPX220

Departure Arrival
March Air Reserve Base (KRIV)
Click to view FAA NOTAMS
Seattle-Tacoma International Airport (KSEA)
Click to view FAA NOTAMS
Departure Time Arrival Time
N/A N/A
Aircraft Distance
B767-300BDSF 833nm
Departure METAR Arrival METAR
KRIV 180458Z AUTO 26007KT 10SM SCT024 SCT034 BKN048 BKN060 07/07 A2995 RMK AO2 SLP145 T00680065 KSEA 180453Z 19003KT 10SM SCT026 03/01 A3029 RMK AO2 SLP267 T00280006
Suggested Route
SLI J78 LAX J1 AVE J189 LMT HAWKZ7


View recent IFR Routes data
Notes



Charts and Procedures

Charts for KRIV
No chart available
Charts for KSEA
No chart available

Ventusky Weather